Time;durP1;ratioP1;P1;durP2;ratioP2;P2;SDS_P1;SDS_P2;PMS_P1;PMS_P2;Temp;Humidity;BMP_temperature;BMP_pressure;BME280_temperature;BME280_humidity;BME280_pressure;Samples;Min_cycle;Max_cycle;Signal;HPM_P1;HPM_P2
2022/08/05 05:05:37;;;;;;;3.05;0.80;;;18.30;1.00;;;;;;6185968;22;20774;-91
2022/08/05 05:08:31;;;;;;;2.53;0.80;;;18.30;1.00;;;;;;6159829;23;20341;-92
2022/08/05 05:11:06;;;;;;;0.80;0.60;;;18.30;1.00;;;;;;6160215;23;20357;-91
2022/08/05 05:13:45;;;;;;;3.33;0.93;;;18.30;1.00;;;;;;6160393;23;20083;-91
2022/08/05 05:16:19;;;;;;;4.80;1.05;;;18.40;1.00;;;;;;6160926;23;20021;-90
2022/08/05 05:19:06;;;;;;;1.63;0.65;;;18.30;1.00;;;;;;6161195;23;20021;-91
2022/08/05 05:21:51;;;;;;;1.45;0.80;;;18.40;1.00;;;;;;6141093;23;20025;-92
2022/08/05 05:24:30;;;;;;;3.17;0.90;;;18.40;1.00;;;;;;6138432;23;20100;-92
2022/08/05 05:27:23;;;;;;;4.40;0.85;;;18.40;1.00;;;;;;6142361;23;20013;-92
2022/08/05 05:30:15;;;;;;;3.33;0.90;;;18.40;1.00;;;;;;6143122;23;20025;-90
2022/08/05 05:33:03;;;;;;;4.85;0.93;;;18.50;1.00;;;;;;6162185;23;20063;-90
2022/08/05 05:35:49;;;;;;;2.30;1.30;;;18.50;1.00;;;;;;6140130;23;20021;-92
2022/08/05 05:38:19;;;;;;;2.90;0.70;;;18.50;1.00;;;;;;6163414;23;20013;-92
2022/08/05 05:40:59;;;;;;;4.72;0.73;;;18.60;1.00;;;;;;6139657;23;20017;-92
2022/08/05 05:43:45;;;;;;;1.38;0.70;;;18.50;1.00;;;;;;6141108;23;20500;-92
2022/08/05 05:46:29;;;;;;;0.70;0.40;;;18.60;1.00;;;;;;6161671;23;20361;-91
2022/08/05 05:49:01;;;;;;;1.25;0.40;;;18.60;1.00;;;;;;6161771;23;20021;-90
2022/08/05 05:51:51;;;;;;;2.95;0.60;;;18.70;1.00;;;;;;6161508;23;20025;-91
2022/08/05 05:54:27;;;;;;;1.67;1.02;;;18.70;1.00;;;;;;6161541;23;20083;-92
2022/08/05 05:57:17;;;;;;;1.65;0.45;;;18.70;1.00;;;;;;6142325;23;20017;-91
2022/08/05 05:59:48;;;;;;;1.10;0.88;;;18.60;1.00;;;;;;6137749;23;20437;-91
2022/08/05 06:02:20;;;;;;;0.80;0.57;;;18.70;1.00;;;;;;6162366;23;20075;-92
2022/08/05 06:05:09;;;;;;;1.48;0.40;;;18.70;1.00;;;;;;6162143;23;20437;-91
2022/08/05 06:07:44;;;;;;;3.53;1.05;;;18.70;1.00;;;;;;6173570;23;20021;-91
2022/08/05 06:10:31;;;;;;;4.28;0.75;;;18.70;1.00;;;;;;6199148;23;20028;-91
2022/08/05 06:13:15;;;;;;;3.30;0.90;;;18.80;1.00;;;;;;6188970;23;20013;-91
2022/08/05 06:15:49;;;;;;;1.73;0.30;;;18.80;1.00;;;;;;6163299;23;20047;-92
2022/08/05 06:18:37;;;;;;;1.17;0.70;;;18.90;1.00;;;;;;6181958;23;20417;-92
2022/08/05 06:21:10;;;;;;;0.95;0.52;;;18.80;1.00;;;;;;6185191;23;20044;-92
2022/08/05 06:23:53;;;;;;;1.58;0.55;;;18.90;1.00;;;;;;6186334;23;20017;-91
2022/08/05 06:26:27;;;;;;;2.05;0.40;;;18.90;1.00;;;;;;6186304;23;20024;-91
2022/08/05 06:29:05;;;;;;;0.80;0.43;;;18.90;1.00;;;;;;6166683;23;20025;-91
2022/08/05 06:31:54;;;;;;;2.35;0.65;;;18.90;1.00;;;;;;6176774;23;20255;-91
2022/08/05 06:34:25;;;;;;;0.90;0.45;;;18.90;1.00;;;;;;6160610;23;20021;-92
2022/08/05 06:37:07;;;;;;;1.75;0.30;;;18.80;1.00;;;;;;6188783;23;20001;-90
2022/08/05 06:39:54;;;;;;;1.33;0.77;;;18.80;1.00;;;;;;6197923;23;20524;-91
2022/08/05 06:42:23;;;;;;;2.85;0.50;;;18.90;1.00;;;;;;6161552;23;20025;-91
2022/08/05 06:44:53;;;;;;;1.88;0.65;;;18.90;1.00;;;;;;6136778;23;20021;-91
2022/08/05 06:47:25;;;;;;;3.55;0.50;;;18.80;1.00;;;;;;6161312;23;20027;-91
2022/08/05 06:50:17;;;;;;;3.50;0.63;;;18.80;1.00;;;;;;6160851;23;20458;-91
2022/08/05 06:52:49;;;;;;;0.68;0.35;;;18.90;1.00;;;;;;6137195;23;20067;-91
2022/08/05 06:55:44;;;;;;;1.02;0.43;;;18.90;1.00;;;;;;6161072;23;20496;-92
2022/08/05 06:58:18;;;;;;;1.63;0.57;;;18.90;1.00;;;;;;6163082;23;20013;-92
2022/08/05 07:01:05;;;;;;;2.35;0.60;;;18.90;1.00;;;;;;6181737;23;20017;-91
2022/08/05 07:03:33;;;;;;;1.10;0.60;;;18.90;1.00;;;;;;6136455;23;20095;-91
2022/08/05 07:06:14;;;;;;;0.70;0.40;;;18.90;1.00;;;;;;6136461;23;20021;-92
2022/08/05 07:08:50;;;;;;;3.17;0.55;;;18.90;1.00;;;;;;6138709;23;20312;-91
2022/08/05 07:11:23;;;;;;;2.20;0.55;;;18.90;1.00;;;;;;6137397;23;20096;-91
2022/08/05 07:16:59;;;;;;;2.90;0.63;;;19.00;1.00;;;;;;6160627;23;20352;-90
2022/08/05 07:20:36;;;;;;;1.25;0.40;;;18.90;1.00;;;;;;6188521;23;20501;-91
2022/08/05 07:32:27;;;;;;;0.63;0.52;;;18.90;1.00;;;;;;6215274;22;20024;-92
2022/08/05 07:35:22;;;;;;;0.57;0.30;;;19.00;1.00;;;;;;6162986;23;20017;-91
2022/08/05 08:02:39;;;;;;;3.90;0.95;;;19.00;1.00;;;;;;6230232;23;20033;-91
2022/08/05 08:06:40;;;;;;;1.05;0.30;;;19.00;1.00;;;;;;6223867;23;20017;-91
2022/08/05 08:09:51;;;;;;;8.10;7.40;;;19.10;1.00;;;;;;6112183;23;20018;-92
2022/08/05 08:12:50;;;;;;;2.47;0.50;;;19.00;1.00;;;;;;6132138;23;20029;-91
2022/08/05 08:15:27;;;;;;;1.80;0.30;;;19.10;1.00;;;;;;6106881;23;20141;-91
2022/08/05 08:18:44;;;;;;;1.48;0.52;;;19.10;1.00;;;;;;6134643;23;20025;-92
2022/08/05 08:22:28;;;;;;;0.50;0.30;;;19.10;1.00;;;;;;6138108;23;20410;-92
2022/08/05 08:25:40;;;;;;;1.13;0.30;;;19.10;1.00;;;;;;6132217;23;20018;-92
2022/08/05 08:29:03;;;;;;;1.58;0.30;;;19.20;1.00;;;;;;6111147;23;20021;-92
2022/08/05 08:40:00;;;;;;;2.35;0.40;;;19.20;1.00;;;;;;6214626;22;20460;-92
2022/08/05 08:42:55;;;;;;;0.90;0.40;;;19.20;1.00;;;;;;6130960;23;20055;-93
2022/08/05 08:45:48;;;;;;;1.58;0.35;;;19.30;1.00;;;;;;6200241;23;20027;-92
2022/08/05 08:48:52;;;;;;;1.88;0.60;;;19.30;1.00;;;;;;6220607;23;20031;-91
2022/08/05 08:52:04;;;;;;;1.58;0.40;;;19.30;1.00;;;;;;6214713;23;20531;-91
2022/08/05 08:54:46;;;;;;;1.55;0.30;;;19.40;1.00;;;;;;6200253;23;20020;-92
2022/08/05 08:57:47;;;;;;;3.03;0.30;;;19.50;1.00;;;;;;6221547;23;20051;-93
2022/08/05 09:00:30;;;;;;;1.83;0.40;;;19.50;1.00;;;;;;6203392;23;20466;-92
2022/08/05 09:03:05;;;;;;;1.00;0.32;;;19.50;1.00;;;;;;6201268;23;20080;-90
2022/08/05 09:05:35;;;;;;;0.95;0.10;;;19.60;1.00;;;;;;6222761;23;20348;-91
2022/08/05 09:08:31;;;;;;;1.85;0.35;;;19.60;1.00;;;;;;6213646;22;20015;-92
2022/08/05 09:11:07;;;;;;;0.52;0.32;;;19.70;1.00;;;;;;6225091;23;20000;-91
2022/08/05 09:13:41;;;;;;;1.17;0.30;;;19.80;1.00;;;;;;6250101;22;20027;-89
2022/08/05 09:16:31;;;;;;;0.90;0.20;;;19.80;1.00;;;;;;6229776;22;20015;-92
2022/08/05 09:19:06;;;;;;;1.17;0.40;;;19.90;1.00;;;;;;6225786;22;19996;-91
2022/08/05 09:21:52;;;;;;;1.02;0.30;;;19.90;1.00;;;;;;6204820;23;20020;-92
2022/08/05 09:25:01;;;;;;;0.60;0.40;;;20.00;1.00;;;;;;6228467;23;20023;-92
2022/08/05 09:27:48;;;;;;;1.88;0.65;;;20.10;1.00;;;;;;6222052;23;20058;-91
2022/08/05 09:30:33;;;;;;;;;;;20.00;1.00;;;;;;6222281;23;20024;-90
2022/08/05 09:33:01;;;;;;;0.98;0.30;;;20.00;1.00;;;;;;6221561;23;19919;-91
2022/08/05 09:35:30;;;;;;;1.35;0.65;;;20.00;1.00;;;;;;6221300;23;20020;-92
2022/08/05 09:37:59;;;;;;;1.48;0.32;;;20.00;1.00;;;;;;6196897;22;20044;-91
2022/08/05 09:40:44;;;;;;;2.03;0.20;;;20.00;1.00;;;;;;6200401;23;20020;-91
2022/08/05 09:43:32;;;;;;;1.13;0.20;;;20.20;1.00;;;;;;6221423;23;20020;-90
2022/08/05 09:46:31;;;;;;;0.50;0.20;;;20.20;1.00;;;;;;6221938;23;20020;-91
2022/08/05 09:49:06;;;;;;;8.80;0.30;;;20.30;1.00;;;;;;6222562;23;20020;-91
2022/08/05 09:51:48;;;;;;;0.90;0.20;;;20.30;1.00;;;;;;6199316;23;20016;-91
2022/08/05 09:54:31;;;;;;;0.57;0.22;;;20.30;1.00;;;;;;6200716;23;20020;-92
2022/08/05 09:57:00;;;;;;;0.70;0.22;;;20.40;1.00;;;;;;6208122;23;20030;-92
2022/08/05 09:59:49;;;;;;;2.25;0.30;;;20.40;1.00;;;;;;6225805;23;20043;-92
2022/08/05 10:02:41;;;;;;;1.83;0.35;;;20.40;1.00;;;;;;6215881;23;20030;-92
2022/08/05 10:05:19;;;;;;;0.88;0.30;;;20.30;1.00;;;;;;6221107;23;20443;-90
2022/08/05 10:08:02;;;;;;;1.55;0.45;;;20.40;1.00;;;;;;6220931;23;20205;-91
2022/08/05 10:11:53;;;;;;;;;;;;;;;;;;;;;
2022/08/05 10:15:55;;;;;;;1.60;0.28;;;20.60;1.00;;;;;;6220926;23;20012;-93
2022/08/05 10:19:03;;;;;;;9.70;0.90;;;20.60;1.00;;;;;;6222537;23;20016;-93
2022/08/05 10:21:48;;;;;;;6.53;0.50;;;20.60;1.00;;;;;;6222755;23;20400;-92
2022/08/05 11:24:35;;;;;;;1.20;0.90;;;21.60;1.00;;;;;;6157639;23;20525;-92
2022/08/05 11:41:01;;;;;;;3.33;1.00;;;21.60;1.00;;;;;;5931118;24;20465;-90
2022/08/05 11:43:56;;;;;;;4.32;1.48;;;21.70;1.00;;;;;;6082207;23;20397;-88
2022/08/05 11:46:33;;;;;;;5.13;1.50;;;21.70;1.00;;;;;;6164902;23;20052;-90
2022/08/05 11:49:23;;;;;;;4.18;0.80;;;21.80;1.00;;;;;;6169599;23;20028;-90
2022/08/05 11:51:54;;;;;;;6.28;1.25;;;21.70;1.00;;;;;;6218801;22;20004;-89
2022/08/05 11:54:31;;;;;;;4.05;1.27;;;21.80;1.00;;;;;;6160410;23;20020;-90
2022/08/05 11:57:04;;;;;;;8.07;1.20;;;21.90;1.00;;;;;;6244212;23;20001;-90
2022/08/05 12:04:12;;;;;;;12.05;1.33;;;22.30;1.00;;;;;;6222560;23;20032;-90
2022/08/05 12:06:47;;;;;;;3.58;0.80;;;22.10;1.00;;;;;;6219108;23;20463;-93
2022/08/05 12:09:23;;;;;;;7.20;0.75;;;22.20;1.00;;;;;;6193976;23;20061;-91
2022/08/05 12:12:23;;;;;;;2.08;0.30;;;22.00;1.00;;;;;;6219865;23;20016;-92
2022/08/05 12:14:58;;;;;;;5.93;0.60;;;22.30;1.00;;;;;;6195670;23;20020;-93
2022/08/05 12:17:28;;;;;;;3.47;0.80;;;22.30;1.00;;;;;;6220511;23;20027;-91
2022/08/05 12:20:17;;;;;;;2.20;1.02;;;22.30;1.00;;;;;;6219859;23;20099;-91
2022/08/05 12:23:14;;;;;;;2.25;0.30;;;22.30;1.00;;;;;;6220594;23;20374;-92
2022/08/05 12:25:55;;;;;;;3.75;1.63;;;22.60;1.00;;;;;;6195318;23;20099;-91
2022/08/05 12:28:37;;;;;;;5.10;0.55;;;22.70;1.00;;;;;;6197241;23;20467;-91
2022/08/05 12:31:12;;;;;;;1.70;0.52;;;22.80;1.00;;;;;;6195618;23;20059;-92
2022/08/05 12:34:08;;;;;;;2.42;0.38;;;23.00;1.00;;;;;;6199897;23;20026;-91
2022/08/05 12:37:22;;;;;;;;;;;;;;;;;;;;;
2022/08/05 12:40:52;;;;;;;2.40;0.60;;;23.10;1.00;;;;;;6124907;23;20341;-92
2022/08/05 12:43:57;;;;;;;3.60;0.47;;;23.30;1.00;;;;;;6077326;23;20020;-92
2022/08/05 12:46:39;;;;;;;1.45;0.30;;;23.30;1.00;;;;;;6076778;23;20014;-91
2022/08/05 12:49:43;;;;;;;1.42;0.43;;;23.60;1.00;;;;;;6077578;23;20028;-91
2022/08/05 12:53:00;;;;;;;3.03;0.50;;;23.70;1.00;;;;;;6109210;23;20029;-91
2022/08/05 12:55:33;;;;;;;0.60;0.25;;;23.60;1.00;;;;;;6101110;23;20048;-91
2022/08/05 12:58:04;;;;;;;1.85;0.38;;;23.80;1.00;;;;;;6100908;23;20022;-91
2022/08/05 13:01:02;;;;;;;1.40;0.30;;;24.00;1.00;;;;;;6072713;23;20023;-91
2022/08/05 13:04:13;;;;;;;5.20;0.70;;;24.20;1.00;;;;;;6052109;23;20018;-92
2022/08/05 13:06:50;;;;;;;8.48;0.70;;;24.20;1.00;;;;;;6071853;23;20033;-92
2022/08/05 13:09:18;;;;;;;3.05;0.20;;;24.20;1.00;;;;;;6047456;23;20026;-91
2022/08/05 13:12:07;;;;;;;1.65;0.57;;;24.00;1.00;;;;;;6071295;23;20030;-91
2022/08/05 13:14:56;;;;;;;1.65;0.55;;;24.00;1.00;;;;;;6165015;23;20024;-91
2022/08/05 13:17:37;;;;;;;1.35;0.50;;;24.10;1.00;;;;;;6194874;23;20009;-92
2022/08/05 13:20:17;;;;;;;1.30;0.40;;;24.20;1.00;;;;;;6166798;23;20020;-91
2022/08/05 13:22:55;;;;;;;1.27;0.20;;;24.30;1.00;;;;;;6189221;23;20059;-92
2022/08/05 13:25:28;;;;;;;1.42;0.17;;;24.30;1.00;;;;;;6166061;23;20016;-91
2022/08/05 13:28:22;;;;;;;1.42;0.30;;;24.40;1.00;;;;;;6194839;23;20016;-92
2022/08/05 13:30:58;;;;;;;1.00;0.20;;;24.40;1.00;;;;;;6166451;23;20467;-91
2022/08/05 13:33:42;;;;;;;2.50;0.30;;;24.20;1.00;;;;;;6167666;23;20024;-91
2022/08/05 13:36:32;;;;;;;0.75;0.28;;;24.00;1.00;;;;;;6168493;23;20021;-91
2022/08/05 13:39:06;;;;;;;0.77;0.30;;;24.20;1.00;;;;;;6190046;23;20467;-92
2022/08/05 13:41:56;;;;;;;1.05;0.30;;;24.40;1.00;;;;;;6196498;23;20019;-92
2022/08/05 13:44:51;;;;;;;2.45;0.32;;;24.50;1.00;;;;;;6171422;23;20013;-91
2022/08/05 13:47:36;;;;;;;2.25;0.28;;;24.80;1.00;;;;;;6167214;23;20025;-93
2022/08/05 13:50:38;;;;;;;1.65;0.50;;;25.00;1.00;;;;;;6173883;23;20078;-93
2022/08/05 13:53:36;;;;;;;;;;;;;;;;;;;;;
2022/08/05 13:56:53;;;;;;;0.98;0.40;;;25.00;1.00;;;;;;6217801;23;20105;-92
2022/08/05 13:59:29;;;;;;;0.40;0.10;;;25.10;1.00;;;;;;6172153;23;20021;-91
2022/08/05 14:02:38;;;;;;;1.60;0.28;;;25.10;1.00;;;;;;6217591;23;20024;-92
2022/08/05 14:05:30;;;;;;;;;;;;;;;;;;;;;
2022/08/05 14:09:06;;;;;;;0.73;0.20;;;25.30;1.00;;;;;;6214810;23;20021;-92
2022/08/05 14:12:27;;;;;;;2.95;0.77;;;25.30;1.00;;;;;;6198460;23;20021;-90
2022/08/05 14:16:06;;;;;;;2.65;0.43;;;25.20;1.00;;;;;;6166050;23;20024;-92
2022/08/05 14:19:16;;;;;;;0.73;0.40;;;25.30;1.00;;;;;;6196002;23;20016;-92
2022/08/05 14:22:03;;;;;;;3.88;0.80;;;25.50;1.00;;;;;;6215865;23;20021;-92
2022/08/05 14:24:49;;;;;;;2.20;0.45;;;25.50;1.00;;;;;;6217425;23;20012;-91
2022/08/05 14:28:21;;;;;;;4.43;0.55;;;25.40;1.00;;;;;;6232012;23;20059;-92
2022/08/05 14:31:35;;;;;;;3.53;0.85;;;25.40;1.00;;;;;;6224478;23;20023;-91
2022/08/05 14:34:43;;;;;;;2.83;0.60;;;25.60;1.00;;;;;;6224648;23;20024;-92
2022/08/05 14:38:16;;;;;;;1.30;0.50;;;25.60;1.00;;;;;;6237085;23;20013;-90
2022/08/05 14:41:22;;;;;;;2.65;0.63;;;25.70;1.00;;;;;;6171172;23;20111;-91
2022/08/05 14:44:14;;;;;;;4.18;0.50;;;25.80;1.00;;;;;;6192571;23;20020;-93
2022/08/05 14:47:23;;;;;;;2.42;0.57;;;26.00;1.00;;;;;;6202339;23;20103;-92
2022/08/05 14:50:41;;;;;;;2.22;0.70;;;26.10;1.00;;;;;;6199123;23;20456;-92
2022/08/05 14:53:48;;;;;;;0.73;0.40;;;26.10;1.00;;;;;;6195128;23;20437;-91
2022/08/05 14:56:45;;;;;;;1.23;0.47;;;26.10;1.00;;;;;;6215598;23;20024;-89
2022/08/05 14:59:47;;;;;;;4.35;1.25;;;26.50;1.00;;;;;;6192321;23;20017;-90
2022/08/05 15:02:24;;;;;;;2.72;0.40;;;26.60;1.00;;;;;;6184423;23;20027;-90
2022/08/05 15:04:58;;;;;;;2.83;0.63;;;26.70;1.00;;;;;;6216054;23;20451;-91
2022/08/05 15:08:07;;;;;;;3.83;0.52;;;26.70;1.00;;;;;;6195002;23;20016;-90
2022/08/05 15:11:11;;;;;;;1.55;0.40;;;26.80;1.00;;;;;;6196267;23;20020;-91
2022/08/05 15:14:12;;;;;;;2.88;0.45;;;27.00;1.00;;;;;;6196683;23;20027;-91
2022/08/05 15:17:18;;;;;;;1.75;0.47;;;27.20;1.00;;;;;;6215550;23;20017;-90
2022/08/05 15:23:59;;;;;;;2.20;0.55;;;27.60;1.00;;;;;;6167528;23;20078;-92
2022/08/05 15:27:05;;;;;;;2.05;0.40;;;27.80;1.00;;;;;;6192657;23;20016;-91
2022/08/05 15:37:50;;;;;;;2.63;0.40;;;28.00;1.00;;;;;;6205153;23;20023;-93
2022/08/05 15:45:06;;;;;;;2.92;0.77;;;28.30;1.00;;;;;;6192165;23;20016;-91
2022/08/05 15:48:14;;;;;;;1.80;0.63;;;28.30;1.00;;;;;;6196457;23;20453;-91
2022/08/05 15:52:11;;;;;;;1.13;0.30;;;28.20;1.00;;;;;;6053410;23;20026;-93
2022/08/05 15:59:25;;;;;;;2.05;0.50;;;28.60;1.00;;;;;;6018166;23;20102;-92
2022/08/05 16:02:27;;;;;;;4.38;0.75;;;28.70;1.00;;;;;;6033274;23;20023;-93
2022/08/05 16:05:59;;;;;;;2.80;0.85;;;29.10;1.00;;;;;;6038329;23;20034;-93
2022/08/05 16:09:01;;;;;;;2.08;0.88;;;28.80;1.00;;;;;;6063159;23;20080;-93
2022/08/05 16:11:56;;;;;;;2.05;0.60;;;29.20;1.00;;;;;;6079824;23;20073;-92
2022/08/05 16:15:09;;;;;;;1.52;0.47;;;29.10;1.00;;;;;;6078514;23;20022;-92
2022/08/05 16:17:52;;;;;;;1.17;0.38;;;29.10;1.00;;;;;;6103603;23;20014;-92
2022/08/05 16:20:48;;;;;;;2.17;0.60;;;29.10;1.00;;;;;;6077830;23;20022;-92
2022/08/05 16:27:16;;;;;;;1.73;0.70;;;29.20;1.00;;;;;;6189634;23;20333;-92
2022/08/05 16:30:20;;;;;;;1.13;0.30;;;29.00;1.00;;;;;;6170120;23;20021;-93
2022/08/05 16:33:10;;;;;;;1.45;0.30;;;28.70;1.00;;;;;;6168107;23;20074;-92
2022/08/05 16:36:00;;;;;;;2.35;0.73;;;28.70;1.00;;;;;;6165700;23;20016;-91
2022/08/05 16:38:37;;;;;;;4.32;0.50;;;28.70;1.00;;;;;;6166490;23;20020;-92
2022/08/05 16:41:09;;;;;;;2.00;0.45;;;28.60;1.00;;;;;;6189448;23;20349;-92
2022/08/05 16:44:04;;;;;;;1.77;0.40;;;28.50;1.00;;;;;;6194515;23;20039;-91
2022/08/05 16:46:39;;;;;;;3.10;0.50;;;28.30;1.00;;;;;;6165994;23;20063;-93
2022/08/05 16:49:22;;;;;;;2.40;0.68;;;28.10;1.00;;;;;;6216419;23;20045;-91
2022/08/05 16:51:57;;;;;;;2.88;0.40;;;27.80;1.00;;;;;;6166165;23;20025;-92
2022/08/05 16:54:36;;;;;;;8.38;6.50;;;27.50;1.00;;;;;;6167961;23;20107;-92
2022/08/05 16:57:12;;;;;;;3.20;1.90;;;27.40;1.00;;;;;;6165703;23;20025;-93
2022/08/05 17:00:15;;;;;;;9.20;5.85;;;27.20;1.00;;;;;;6191694;23;20025;-92
2022/08/05 17:03:04;;;;;;;10.73;7.30;;;27.10;1.00;;;;;;6173793;23;20021;-92
2022/08/05 17:05:48;;;;;;;12.27;7.18;;;26.90;1.00;;;;;;6220833;23;20027;-92
2022/08/05 17:08:21;;;;;;;13.05;9.55;;;26.80;1.00;;;;;;6194392;23;20029;-91
2022/08/05 17:11:11;;;;;;;15.15;9.52;;;26.80;1.00;;;;;;6222707;23;20027;-91
2022/08/05 17:13:44;;;;;;;15.73;9.40;;;26.80;1.00;;;;;;6242881;23;20001;-90
2022/08/05 17:16:19;;;;;;;9.00;5.95;;;26.60;1.00;;;;;;6202339;23;20019;-91
2022/08/05 17:19:00;;;;;;;7.65;5.32;;;26.10;1.00;;;;;;6194532;23;20012;-92
2022/08/05 17:21:35;;;;;;;7.05;4.50;;;26.00;1.00;;;;;;6192218;23;20100;-92
2022/08/05 17:24:10;;;;;;;8.43;4.25;;;25.90;1.00;;;;;;6192128;23;20103;-92
2022/08/05 17:27:07;;;;;;;8.43;3.97;;;26.00;1.00;;;;;;6173239;23;20047;-92
2022/08/05 17:29:45;;;;;;;7.10;3.72;;;25.90;1.00;;;;;;6192272;23;20448;-91
2022/08/05 17:32:25;;;;;;;3.90;3.15;;;25.90;1.00;;;;;;6193973;23;20028;-91
2022/08/05 17:34:57;;;;;;;4.63;2.38;;;25.80;1.00;;;;;;6191822;23;20020;-92
2022/08/05 17:37:28;;;;;;;3.95;2.10;;;25.70;1.00;;;;;;6190876;23;20024;-92
2022/08/05 17:40:14;;;;;;;4.05;1.75;;;25.60;1.00;;;;;;6194774;23;20013;-92
2022/08/05 17:42:44;;;;;;;4.78;2.05;;;25.50;1.00;;;;;;6191207;23;20020;-92
2022/08/05 17:45:23;;;;;;;4.53;1.35;;;25.30;1.00;;;;;;6167478;23;20103;-92
2022/08/05 17:48:06;;;;;;;5.45;1.42;;;25.20;1.00;;;;;;6169201;23;20025;-92
2022/08/05 17:50:45;;;;;;;8.20;1.63;;;25.10;1.00;;;;;;6167460;23;20020;-92
2022/08/05 17:53:15;;;;;;;2.58;1.70;;;25.10;1.00;;;;;;6166927;23;20035;-92
2022/08/05 17:55:46;;;;;;;3.47;1.65;;;24.80;1.00;;;;;;6191270;23;20027;-91
2022/08/05 17:58:18;;;;;;;3.45;1.02;;;24.60;1.00;;;;;;6191925;23;20196;-92
2022/08/05 18:00:50;;;;;;;3.03;1.00;;;24.60;1.00;;;;;;6191586;23;20064;-92
2022/08/05 18:03:25;;;;;;;2.50;0.80;;;24.60;1.00;;;;;;6192369;23;20440;-92
2022/08/05 18:06:14;;;;;;;4.93;1.00;;;24.60;1.00;;;;;;6195665;23;20032;-91
2022/08/05 18:08:44;;;;;;;3.20;0.82;;;24.50;1.00;;;;;;6191651;23;20027;-92
2022/08/05 18:11:21;;;;;;;3.00;1.02;;;24.40;1.00;;;;;;6216217;23;20470;-91
2022/08/05 18:14:07;;;;;;;2.17;0.70;;;24.20;1.00;;;;;;6193002;23;20405;-92
2022/08/05 18:16:40;;;;;;;1.45;0.60;;;24.20;1.00;;;;;;6216285;23;20028;-91
2022/08/05 18:19:18;;;;;;;2.80;0.82;;;24.00;1.00;;;;;;6215810;23;20017;-91
2022/08/05 18:21:52;;;;;;;2.10;0.70;;;23.90;1.00;;;;;;6216449;23;20317;-91
2022/08/05 18:24:40;;;;;;;1.45;0.43;;;23.90;1.00;;;;;;6215467;23;20040;-92
2022/08/05 18:27:09;;;;;;;1.63;0.75;;;23.90;1.00;;;;;;6191219;23;20063;-90
2022/08/05 18:29:44;;;;;;;3.40;1.05;;;23.60;1.00;;;;;;6215631;23;20498;-91
2022/08/05 18:32:21;;;;;;;2.63;0.40;;;23.50;1.00;;;;;;6193888;23;20021;-92
2022/08/05 18:34:56;;;;;;;2.22;0.40;;;23.50;1.00;;;;;;6215798;23;20024;-92
2022/08/05 18:37:29;;;;;;;3.20;0.75;;;23.40;1.00;;;;;;6215818;23;20448;-93
2022/08/05 18:40:09;;;;;;;3.15;0.65;;;23.20;1.00;;;;;;6217693;23;20496;-90
2022/08/05 18:42:57;;;;;;;2.78;0.43;;;23.20;1.00;;;;;;6195743;23;20012;-92
2022/08/05 18:45:28;;;;;;;2.50;0.60;;;23.00;1.00;;;;;;6190829;23;20355;-91
2022/08/05 18:48:10;;;;;;;2.53;0.43;;;23.00;1.00;;;;;;6193461;23;20029;-91
2022/08/05 18:54:08;;;;;;;2.53;0.60;;;22.70;1.00;;;;;;6217050;23;20012;-90
2022/08/05 18:56:42;;;;;;;3.10;0.70;;;22.70;1.00;;;;;;6216348;23;20023;-91
2022/08/05 18:59:26;;;;;;;0.75;0.30;;;22.70;1.00;;;;;;6193498;23;20009;-91
2022/08/05 19:02:17;;;;;;;1.13;0.55;;;22.70;1.00;;;;;;6185715;23;20026;-91
2022/08/05 19:05:01;;;;;;;2.72;0.77;;;22.50;1.00;;;;;;6192942;23;20061;-90
2022/08/05 19:07:58;;;;;;;2.67;0.60;;;22.50;1.00;;;;;;6172511;23;20341;-91
2022/08/05 19:10:32;;;;;;;1.38;0.50;;;22.40;1.00;;;;;;6190795;23;20017;-92
2022/08/05 19:13:08;;;;;;;3.88;1.55;;;22.30;1.00;;;;;;6192084;23;20047;-92
2022/08/05 19:15:49;;;;;;;2.47;0.43;;;22.20;1.00;;;;;;6168349;23;20022;-91
2022/08/05 19:18:32;;;;;;;2.65;0.50;;;22.20;1.00;;;;;;6167273;23;20071;-91
2022/08/05 19:21:05;;;;;;;4.05;0.60;;;22.20;1.00;;;;;;6190158;23;20025;-91
2022/08/05 19:23:42;;;;;;;0.82;0.43;;;22.10;1.00;;;;;;6167353;23;20017;-91
2022/08/05 19:26:34;;;;;;;1.43;0.43;;;22.10;1.00;;;;;;6190376;23;20445;-92
2022/08/05 19:29:25;;;;;;;1.15;0.25;;;22.00;1.00;;;;;;6170262;23;20023;-92
2022/08/05 19:32:06;;;;;;;1.85;0.70;;;21.90;1.00;;;;;;6190533;23;20111;-90
2022/08/05 19:34:38;;;;;;;3.15;0.70;;;21.80;1.00;;;;;;6191598;23;20090;-92
2022/08/05 19:37:11;;;;;;;1.42;0.50;;;21.80;1.00;;;;;;6190514;23;20044;-91
2022/08/05 19:39:40;;;;;;;1.35;0.50;;;21.70;1.00;;;;;;6166317;23;20151;-91
2022/08/05 19:42:18;;;;;;;2.95;0.40;;;21.60;1.00;;;;;;6187425;23;20016;-92
2022/08/05 19:45:08;;;;;;;1.35;0.45;;;21.60;1.00;;;;;;6197255;23;20001;-91
2022/08/05 19:47:43;;;;;;;2.00;0.70;;;21.50;1.00;;;;;;6194912;23;20001;-90
2022/08/05 19:50:27;;;;;;;1.10;0.35;;;21.50;1.00;;;;;;6196330;23;20020;-90
2022/08/05 19:53:02;;;;;;;1.55;0.60;;;21.40;1.00;;;;;;6194635;23;20031;-92
2022/08/05 19:55:46;;;;;;;1.05;0.60;;;21.40;1.00;;;;;;6191193;23;20452;-91
2022/08/05 19:58:38;;;;;;;2.40;0.73;;;21.30;1.00;;;;;;6170149;23;20453;-91
2022/08/05 20:01:23;;;;;;;0.98;0.47;;;21.20;1.00;;;;;;6168815;22;20021;-90
2022/08/05 20:03:59;;;;;;;2.13;0.35;;;21.20;1.00;;;;;;6167887;23;20013;-92
2022/08/05 20:06:29;;;;;;;1.25;0.70;;;21.20;1.00;;;;;;6166121;23;20079;-91
2022/08/05 20:09:15;;;;;;;1.80;0.43;;;21.10;1.00;;;;;;6169657;23;20020;-92
2022/08/05 20:11:45;;;;;;;2.17;0.28;;;21.00;1.00;;;;;;6190185;23;20016;-91
2022/08/05 20:14:23;;;;;;;0.90;0.63;;;21.00;1.00;;;;;;6166582;23;20071;-91
2022/08/05 20:17:08;;;;;;;2.92;0.68;;;21.00;1.00;;;;;;6190747;23;20020;-91
2022/08/05 20:19:44;;;;;;;1.58;0.50;;;21.00;1.00;;;;;;6189400;23;20028;-90
2022/08/05 20:22:18;;;;;;;2.33;0.40;;;20.90;1.00;;;;;;6166016;23;20384;-91
2022/08/05 20:24:55;;;;;;;3.70;0.93;;;20.90;1.00;;;;;;6192175;23;20009;-91
2022/08/05 20:27:29;;;;;;;3.47;0.47;;;20.80;1.00;;;;;;6166456;23;20016;-91
2022/08/05 20:30:10;;;;;;;1.80;0.55;;;20.80;1.00;;;;;;6192926;23;20028;-92
2022/08/05 20:32:49;;;;;;;1.83;0.40;;;20.70;1.00;;;;;;6166750;23;20436;-91
2022/08/05 20:35:21;;;;;;;1.05;0.35;;;20.70;1.00;;;;;;6164339;23;20031;-91
2022/08/05 20:37:56;;;;;;;2.03;0.40;;;20.60;1.00;;;;;;6166190;23;20023;-91
2022/08/05 20:40:36;;;;;;;1.70;0.30;;;20.60;1.00;;;;;;6168364;23;20019;-91
2022/08/05 20:43:13;;;;;;;0.60;0.40;;;20.50;1.00;;;;;;6191517;23;20023;-92
2022/08/05 20:46:09;;;;;;;1.02;0.32;;;20.50;1.00;;;;;;6170869;23;20024;-91
2022/08/05 20:48:47;;;;;;;0.98;0.52;;;20.50;1.00;;;;;;6167432;23;20352;-91
2022/08/05 20:51:19;;;;;;;0.52;0.40;;;20.40;1.00;;;;;;6168635;23;20031;-94
2022/08/05 20:53:50;;;;;;;1.45;0.40;;;20.30;1.00;;;;;;6167672;23;20052;-91
2022/08/05 20:56:27;;;;;;;2.28;0.40;;;20.30;1.00;;;;;;6167879;23;20040;-91
2022/08/05 20:59:08;;;;;;;1.75;0.50;;;20.30;1.00;;;;;;6195288;23;20436;-91
2022/08/05 21:01:50;;;;;;;4.22;0.98;;;20.20;1.00;;;;;;6195212;23;20079;-90
2022/08/05 21:04:22;;;;;;;1.27;0.30;;;20.20;1.00;;;;;;6192468;23;20387;-91
2022/08/05 21:06:55;;;;;;;0.70;0.20;;;20.20;1.00;;;;;;6216903;23;20016;-90
2022/08/05 21:09:27;;;;;;;0.75;0.40;;;20.20;1.00;;;;;;6192241;23;20017;-91
2022/08/05 21:11:59;;;;;;;0.52;0.20;;;20.10;1.00;;;;;;6216460;23;20079;-91
2022/08/05 21:14:39;;;;;;;0.85;0.30;;;20.10;1.00;;;;;;6194315;23;20020;-90
2022/08/05 21:17:09;;;;;;;1.05;0.38;;;20.10;1.00;;;;;;6217254;23;20025;-90
2022/08/05 21:19:41;;;;;;;1.80;0.40;;;20.10;1.00;;;;;;6192130;23;20013;-90
2022/08/05 21:22:16;;;;;;;2.28;0.57;;;20.00;1.00;;;;;;6193117;23;20086;-91
2022/08/05 21:24:53;;;;;;;4.38;0.52;;;20.00;1.00;;;;;;6216619;23;20423;-89
2022/08/05 21:27:26;;;;;;;1.10;0.30;;;19.90;1.00;;;;;;6191825;23;20099;-90
2022/08/05 21:30:08;;;;;;;0.40;0.20;;;19.90;1.00;;;;;;6194934;23;20087;-90
2022/08/05 21:32:47;;;;;;;3.13;0.20;;;19.90;1.00;;;;;;6193885;23;20045;-91
2022/08/05 21:35:23;;;;;;;2.40;0.40;;;19.90;1.00;;;;;;6192787;23;20027;-91
2022/08/05 21:38:09;;;;;;;1.08;0.30;;;19.80;1.00;;;;;;6195591;23;20026;-91
2022/08/05 21:40:41;;;;;;;2.45;0.40;;;19.80;1.00;;;;;;6191659;23;20079;-91
2022/08/05 21:43:11;;;;;;;1.35;0.30;;;19.70;1.00;;;;;;6193680;23;20393;-90
2022/08/05 21:45:51;;;;;;;0.88;0.28;;;19.70;1.00;;;;;;6195342;23;20026;-91
2022/08/05 21:48:27;;;;;;;0.85;0.43;;;19.70;1.00;;;;;;6216967;23;20020;-91
2022/08/05 21:50:54;;;;;;;0.95;0.35;;;19.60;1.00;;;;;;6192368;23;20020;-92
2022/08/05 21:53:34;;;;;;;2.08;0.32;;;19.60;1.00;;;;;;6192409;23;20421;-91
2022/08/05 21:56:08;;;;;;;0.77;0.40;;;19.60;1.00;;;;;;6191374;23;20027;-90
2022/08/05 21:58:43;;;;;;;1.55;0.30;;;19.60;1.00;;;;;;6217632;23;20017;-92
2022/08/05 22:01:26;;;;;;;1.75;0.45;;;19.50;1.00;;;;;;6216175;22;20017;-90
2022/08/05 22:04:04;;;;;;;0.60;0.30;;;19.50;1.00;;;;;;6168768;23;20056;-91
2022/08/05 22:06:40;;;;;;;1.30;0.40;;;19.50;1.00;;;;;;6191294;23;20503;-90
2022/08/05 22:09:19;;;;;;;1.20;0.25;;;19.50;1.00;;;;;;6168228;23;20048;-91
2022/08/05 22:12:12;;;;;;;0.57;0.32;;;19.50;1.00;;;;;;6171600;23;20020;-91
2022/08/05 22:14:41;;;;;;;1.63;0.40;;;19.40;1.00;;;;;;6192686;23;20037;-90
2022/08/05 22:17:11;;;;;;;0.70;0.10;;;19.40;1.00;;;;;;6167502;23;20080;-92